createdAt,value
2019-01-24T00:02:19.173Z,35.73
2019-01-24T00:07:32.059Z,34.03
2019-01-24T00:10:02.472Z,33.53
2019-01-24T00:12:32.920Z,35.27
2019-01-24T00:17:52.535Z,32.57
2019-01-24T00:20:22.804Z,33.37
2019-01-24T00:22:55.245Z,34.03
2019-01-24T00:25:27.193Z,34.00
2019-01-24T00:27:57.504Z,34.27
2019-01-24T00:30:27.842Z,33.67
2019-01-24T00:32:58.159Z,35.87
2019-01-24T00:35:34.994Z,30.23
2019-01-24T00:40:48.338Z,32.00
2019-01-24T00:43:19.080Z,32.30
2019-01-24T00:45:51.673Z,34.23
2019-01-24T00:52:10.561Z,32.87
2019-01-24T00:54:40.822Z,31.90
2019-01-24T01:02:53.654Z,29.67
2019-01-24T01:05:24.215Z,29.73
2019-01-24T01:07:54.665Z,32.00
2019-01-24T01:13:19.787Z,32.13
2019-01-24T01:15:52.436Z,29.87
2019-01-24T01:21:23.651Z,27.67
2019-01-24T01:23:53.926Z,28.83
2019-01-24T01:26:24.304Z,31.77
2019-01-24T01:28:54.638Z,31.20
2019-01-24T01:31:44.376Z,29.53
2019-01-24T01:34:14.708Z,30.73
2019-01-24T01:39:31.983Z,28.20
2019-01-24T01:42:02.410Z,27.10
2019-01-24T01:47:21.954Z,25.83
2019-01-24T01:58:19.811Z,23.17
2019-01-24T02:00:54.724Z,25.40
2019-01-24T02:03:25.370Z,25.10
2019-01-24T02:05:55.649Z,23.97
2019-01-24T02:08:26.385Z,25.97
2019-01-24T02:10:56.817Z,26.50
2019-01-24T02:13:27.158Z,26.33
2019-01-24T02:16:21.853Z,27.77
2019-01-24T02:18:52.233Z,27.17
2019-01-24T02:24:05.508Z,26.23
2019-01-24T02:26:36.624Z,26.00
2019-01-24T02:29:06.911Z,25.60
2019-01-24T02:31:37.200Z,24.47
2019-01-24T02:34:07.547Z,25.53
2019-01-24T02:36:37.837Z,27.03
2019-01-24T02:39:09.109Z,26.80
2019-01-24T02:41:39.504Z,29.90
2019-01-24T02:44:09.834Z,28.37
2019-01-24T02:46:40.095Z,27.33
2019-01-24T02:49:10.690Z,26.53
2019-01-24T02:51:40.975Z,25.93
2019-01-24T02:57:13.071Z,28.27
2019-01-24T02:59:44.291Z,27.97
2019-01-24T03:02:17.021Z,28.27
2019-01-24T03:04:57.004Z,28.00
2019-01-24T03:07:32.392Z,27.93
2019-01-24T03:10:22.017Z,27.67
2019-01-24T03:12:52.394Z,28.03
2019-01-24T03:18:26.245Z,26.53
2019-01-24T03:24:08.047Z,26.23
2019-01-24T03:26:38.330Z,29.07
2019-01-24T03:29:09.655Z,34.00
2019-01-24T03:34:44.029Z,35.07
2019-01-24T03:37:14.259Z,32.30
2019-01-24T03:39:44.568Z,31.07
2019-01-24T03:42:14.871Z,29.57
2019-01-24T03:44:45.155Z,26.17
2019-01-24T03:47:15.524Z,27.83
2019-01-24T03:49:45.997Z,28.60
2019-01-24T03:52:16.279Z,27.20
2019-01-24T03:54:58.824Z,27.43
2019-01-24T03:57:29.399Z,31.87
2019-01-24T04:02:52.556Z,28.73
2019-01-24T04:05:34.801Z,29.63
2019-01-24T04:08:07.476Z,33.63
2019-01-24T04:10:37.763Z,32.17
2019-01-24T04:13:08.079Z,29.93
2019-01-24T04:18:37.173Z,58.53
2019-01-24T04:21:07.465Z,59.30
2019-01-24T04:23:37.780Z,37.67
2019-01-24T04:26:08.105Z,33.20
2019-01-24T04:28:38.509Z,40.10
2019-01-24T04:31:08.783Z,37.23
2019-01-24T04:33:39.076Z,57.07
2019-01-24T04:36:09.483Z,53.20
2019-01-24T04:38:40.060Z,45.57
2019-01-24T04:44:16.808Z,48.83
2019-01-24T04:47:06.593Z,49.10
2019-01-24T04:55:14.947Z,24.97
2019-01-24T04:57:46.184Z,26.50
2019-01-24T05:00:20.859Z,31.10
2019-01-24T05:08:17.595Z,37.63
2019-01-24T05:10:48.747Z,44.97
2019-01-24T05:13:19.477Z,50.70
2019-01-24T05:15:50.718Z,34.70
2019-01-24T05:18:21.037Z,33.43
2019-01-24T05:20:51.278Z,31.57
2019-01-24T05:23:21.549Z,34.73
2019-01-24T05:25:52.296Z,31.27
2019-01-24T05:28:22.557Z,28.97
2019-01-24T05:30:55.607Z,44.00
2019-01-24T05:33:25.953Z,42.63
2019-01-24T05:35:58.429Z,30.13
2019-01-24T05:38:28.788Z,30.20
2019-01-24T05:41:01.234Z,29.73
2019-01-24T05:43:31.559Z,33.40
2019-01-24T05:46:03.981Z,31.40
2019-01-24T05:48:34.310Z,30.50
2019-01-24T05:54:04.187Z,34.63
2019-01-24T05:56:35.547Z,28.27
2019-01-24T05:59:19.733Z,28.33
2019-01-24T06:04:33.688Z,25.70
2019-01-24T06:07:16.202Z,26.23
2019-01-24T06:09:47.059Z,24.20
2019-01-24T06:14:59.772Z,24.07
2019-01-24T06:20:39.994Z,25.63
2019-01-24T06:23:33.444Z,25.83
2019-01-24T06:26:05.536Z,25.07
2019-01-24T06:31:19.467Z,22.70
2019-01-24T06:33:49.856Z,22.13
2019-01-24T06:41:45.281Z,24.83
2019-01-24T06:44:15.506Z,22.70
2019-01-24T06:49:31.677Z,23.83
2019-01-24T06:52:01.975Z,23.63
2019-01-24T06:54:32.532Z,24.63
2019-01-24T06:57:02.816Z,23.93
2019-01-24T07:02:37.646Z,21.30
2019-01-24T07:13:57.401Z,19.10
2019-01-24T07:16:27.660Z,19.13
2019-01-24T07:18:59.860Z,20.37
2019-01-24T07:21:30.112Z,20.23
2019-01-24T07:24:03.938Z,21.40
2019-01-24T07:29:17.431Z,19.40
2019-01-24T07:31:47.824Z,19.67
2019-01-24T07:34:18.619Z,20.60
2019-01-24T07:39:32.593Z,20.20
2019-01-24T07:44:52.312Z,22.00
2019-01-24T07:47:22.561Z,21.50
2019-01-24T07:49:53.844Z,21.63
2019-01-24T07:52:25.216Z,22.33
2019-01-24T07:54:55.821Z,21.80
2019-01-24T08:03:19.793Z,22.70
2019-01-24T08:05:52.447Z,22.97
2019-01-24T08:08:23.305Z,24.07
2019-01-24T08:10:53.919Z,20.63
2019-01-24T08:13:24.597Z,22.57
2019-01-24T08:15:54.900Z,20.77
2019-01-24T08:18:25.340Z,22.63
2019-01-24T08:20:55.613Z,22.13
2019-01-24T08:23:26.024Z,21.00
2019-01-24T08:25:56.651Z,22.97
2019-01-24T08:28:29.097Z,22.23
2019-01-24T08:31:00.507Z,21.57
2019-01-24T08:37:05.478Z,21.30
2019-01-24T08:39:47.850Z,20.47
2019-01-24T08:42:18.623Z,24.27
2019-01-24T08:44:49.074Z,21.87
2019-01-24T08:47:21.806Z,23.37
2019-01-24T08:49:52.156Z,24.13
2019-01-24T08:52:22.506Z,21.60
2019-01-24T08:54:52.900Z,19.70
2019-01-24T08:57:23.212Z,23.07
2019-01-24T08:59:53.548Z,22.33
2019-01-24T09:02:23.888Z,20.90
2019-01-24T09:04:54.239Z,20.37
2019-01-24T09:10:18.300Z,25.93
2019-01-24T09:12:48.656Z,25.47
2019-01-24T09:15:20.718Z,25.67
2019-01-24T09:20:40.724Z,22.60
2019-01-24T09:23:11.140Z,23.70
2019-01-24T09:28:45.717Z,22.67
2019-01-24T09:31:16.128Z,22.97
2019-01-24T09:33:47.261Z,23.27
2019-01-24T09:36:19.680Z,23.20
2019-01-24T09:39:11.000Z,26.97
2019-01-24T09:41:41.882Z,22.23
2019-01-24T09:44:12.191Z,23.70
2019-01-24T09:46:42.688Z,22.93
2019-01-24T09:49:13.094Z,23.63
2019-01-24T09:51:44.672Z,23.17
2019-01-24T09:57:19.061Z,25.80
2019-01-24T09:59:50.997Z,24.83
2019-01-24T10:02:21.666Z,23.23
2019-01-24T10:04:54.576Z,24.50
2019-01-24T10:07:24.929Z,26.93
2019-01-24T10:12:47.631Z,27.77
2019-01-24T10:18:21.692Z,25.40
2019-01-24T10:21:11.450Z,25.30
2019-01-24T10:23:41.871Z,24.00
2019-01-24T10:26:36.164Z,25.37
2019-01-24T10:29:06.442Z,24.00
2019-01-24T10:31:36.775Z,25.73
2019-01-24T10:34:07.264Z,25.93
2019-01-24T10:46:04.519Z,25.77
2019-01-24T10:48:34.979Z,24.60
2019-01-24T10:54:08.334Z,24.50
2019-01-24T10:56:38.716Z,25.43
2019-01-24T10:59:08.949Z,26.00
2019-01-24T11:01:39.137Z,24.03
2019-01-24T11:04:09.465Z,24.00
2019-01-24T11:06:39.724Z,25.43
2019-01-24T11:17:38.452Z,24.37
2019-01-24T11:23:18.831Z,22.23
2019-01-24T11:25:49.214Z,25.43
2019-01-24T11:28:19.653Z,24.27
2019-01-24T11:30:50.460Z,26.93
2019-01-24T11:33:25.517Z,24.37
2019-01-24T11:35:55.846Z,25.30
2019-01-24T11:38:28.595Z,24.10
2019-01-24T11:40:58.893Z,24.13
2019-01-24T11:43:29.225Z,25.50
2019-01-24T11:46:01.683Z,22.27
2019-01-24T11:54:30.457Z,23.60
2019-01-24T11:57:13.921Z,24.70
2019-01-24T12:02:45.808Z,25.80
2019-01-24T12:05:22.770Z,24.07
2019-01-24T12:07:53.406Z,23.10
2019-01-24T12:10:25.238Z,25.03
2019-01-24T12:12:57.412Z,25.83
2019-01-24T12:18:15.204Z,24.43
2019-01-24T12:20:45.499Z,26.77
2019-01-24T12:23:15.780Z,27.40
2019-01-24T12:25:46.349Z,26.67
2019-01-24T12:31:09.164Z,24.40
2019-01-24T12:33:39.398Z,22.83
2019-01-24T12:42:02.970Z,23.37
2019-01-24T12:50:46.803Z,25.90
2019-01-24T12:53:17.242Z,27.53
2019-01-24T12:55:49.245Z,26.23
2019-01-24T13:01:22.360Z,25.03
2019-01-24T13:03:53.515Z,23.13
2019-01-24T13:06:25.612Z,22.67
2019-01-24T13:08:56.651Z,26.30
2019-01-24T13:14:37.002Z,25.77
2019-01-24T13:22:57.029Z,23.97
2019-01-24T13:25:29.868Z,23.33
2019-01-24T13:28:19.262Z,23.97
2019-01-24T13:33:46.579Z,26.40
2019-01-24T13:36:30.918Z,23.67
2019-01-24T13:39:02.720Z,24.97
2019-01-24T13:41:35.002Z,27.23
2019-01-24T13:44:05.558Z,27.70
2019-01-24T13:46:41.628Z,27.80
2019-01-24T13:52:19.738Z,27.73
2019-01-24T13:54:52.602Z,25.73
2019-01-24T13:57:23.107Z,27.00
2019-01-24T14:03:11.183Z,27.23
2019-01-24T14:05:41.824Z,25.93
2019-01-24T14:11:18.253Z,25.67
2019-01-24T14:14:24.394Z,28.57
2019-01-24T14:16:57.491Z,24.67
2019-01-24T14:19:30.416Z,25.73
2019-01-24T14:22:00.759Z,27.20
2019-01-24T14:24:31.496Z,24.10
2019-01-24T14:27:01.872Z,28.07
2019-01-24T14:29:32.315Z,24.73
2019-01-24T14:32:05.424Z,27.07
2019-01-24T14:34:35.728Z,24.13
2019-01-24T14:37:06.416Z,26.43
2019-01-24T14:39:37.089Z,26.07
2019-01-24T14:42:07.649Z,27.03
2019-01-24T14:44:43.946Z,27.27
2019-01-24T14:47:19.969Z,23.53
2019-01-24T14:49:50.387Z,25.83
2019-01-24T14:52:23.086Z,24.47
2019-01-24T14:54:55.791Z,24.90
2019-01-24T14:57:45.913Z,25.20
2019-01-24T15:00:30.203Z,28.17
2019-01-24T15:03:00.690Z,26.60
2019-01-24T15:05:31.060Z,26.77
2019-01-24T15:08:20.543Z,27.03
2019-01-24T15:10:50.888Z,24.90
2019-01-24T15:13:21.985Z,28.00
2019-01-24T15:15:52.419Z,28.40
2019-01-24T15:24:30.847Z,24.10
2019-01-24T15:27:01.307Z,24.07
2019-01-24T15:29:31.541Z,25.17
2019-01-24T15:32:01.970Z,25.60
2019-01-24T15:34:32.496Z,23.50
2019-01-24T15:37:02.952Z,25.73
2019-01-24T15:39:33.403Z,22.33
2019-01-24T15:42:03.651Z,25.23
2019-01-24T15:44:34.465Z,23.73
2019-01-24T15:53:18.204Z,24.30
2019-01-24T16:01:13.457Z,24.70
2019-01-24T16:03:43.968Z,28.23
2019-01-24T16:09:00.388Z,27.10
2019-01-24T16:11:32.833Z,25.37
2019-01-24T16:14:26.229Z,27.00
2019-01-24T16:17:15.765Z,24.90
2019-01-24T16:25:49.276Z,25.97
2019-01-24T16:28:24.675Z,25.37
2019-01-24T16:30:57.577Z,26.17
2019-01-24T16:33:28.215Z,23.30
2019-01-24T16:35:59.032Z,30.13
2019-01-24T16:38:29.475Z,24.90
2019-01-24T16:40:59.878Z,26.73
2019-01-24T16:43:32.377Z,27.73
2019-01-24T16:49:22.254Z,27.80
2019-01-24T16:52:11.133Z,27.17
2019-01-24T16:54:41.544Z,28.47
2019-01-24T16:59:57.170Z,29.50
2019-01-24T17:02:27.481Z,30.67
2019-01-24T17:08:01.794Z,29.93
2019-01-24T17:10:32.522Z,30.00
2019-01-24T17:13:02.776Z,29.07
2019-01-24T17:24:48.635Z,30.83
2019-01-24T17:27:18.880Z,29.20
2019-01-24T17:29:51.860Z,26.97
2019-01-24T17:38:03.620Z,27.73
2019-01-24T17:40:56.067Z,25.93
2019-01-24T17:46:21.261Z,28.83
2019-01-24T17:48:52.051Z,29.53
2019-01-24T17:51:43.032Z,28.43
2019-01-24T17:54:13.355Z,29.63
2019-01-24T17:56:48.028Z,29.57
2019-01-24T18:05:36.544Z,27.50
2019-01-24T18:08:07.196Z,30.97
2019-01-24T18:10:39.724Z,27.27
2019-01-24T18:13:10.259Z,28.33
2019-01-24T18:18:42.826Z,27.40
2019-01-24T18:21:13.650Z,26.90
2019-01-24T18:23:43.984Z,28.90
2019-01-24T18:26:26.167Z,29.33
2019-01-24T18:28:56.577Z,29.20
2019-01-24T18:31:26.948Z,26.13
2019-01-24T18:33:57.530Z,29.00
2019-01-24T18:36:27.990Z,28.10
2019-01-24T18:38:58.243Z,29.23
2019-01-24T18:41:49.676Z,28.47
2019-01-24T18:44:20.442Z,28.27
2019-01-24T18:49:38.022Z,27.00
2019-01-24T18:52:23.058Z,28.80
2019-01-24T18:54:53.408Z,32.03
2019-01-24T18:57:24.148Z,26.87
2019-01-24T18:59:54.761Z,28.77
2019-01-24T19:05:10.183Z,28.57
2019-01-24T19:07:40.746Z,29.00
2019-01-24T19:10:11.740Z,29.50
2019-01-24T19:15:47.952Z,26.30
2019-01-24T19:18:20.703Z,30.73
2019-01-24T19:20:52.199Z,32.43
2019-01-24T19:23:28.445Z,31.77
2019-01-24T19:26:01.144Z,30.40
2019-01-24T19:28:44.596Z,26.07
2019-01-24T19:31:34.888Z,28.10
2019-01-24T19:37:08.928Z,28.87
2019-01-24T19:39:51.340Z,28.43
2019-01-24T19:42:42.623Z,30.77
2019-01-24T19:45:15.977Z,31.50
2019-01-24T19:47:46.273Z,28.97
2019-01-24T19:50:24.153Z,32.23
2019-01-24T19:52:54.690Z,27.27
2019-01-24T19:55:25.060Z,28.17
2019-01-24T20:01:11.349Z,26.90
2019-01-24T20:03:42.415Z,26.77
2019-01-24T20:06:41.501Z,29.93
2019-01-24T20:09:12.006Z,27.40
2019-01-24T20:14:44.936Z,29.33
2019-01-24T20:20:11.633Z,30.87
2019-01-24T20:22:44.634Z,28.33
2019-01-24T20:28:21.308Z,28.80
2019-01-24T20:30:51.789Z,30.30
2019-01-24T20:33:22.098Z,27.97
2019-01-24T20:39:21.258Z,27.30
2019-01-24T20:41:51.686Z,29.43
2019-01-24T20:44:24.124Z,27.50
2019-01-24T20:47:13.285Z,26.93
2019-01-24T20:49:47.417Z,28.03
2019-01-24T20:55:30.403Z,28.47
2019-01-24T21:06:57.327Z,29.57
2019-01-24T21:09:27.711Z,28.07
2019-01-24T21:18:41.728Z,28.60
2019-01-24T21:21:05.283Z,27.53
2019-01-24T21:23:35.856Z,28.30
2019-01-24T21:26:25.096Z,27.93
2019-01-24T21:29:09.440Z,28.13
2019-01-24T21:31:39.986Z,30.07
2019-01-24T21:34:10.823Z,30.10
2019-01-24T21:36:43.453Z,27.60
2019-01-24T21:39:13.805Z,27.80
2019-01-24T21:42:02.969Z,29.47
2019-01-24T21:44:33.725Z,28.90
2019-01-24T21:47:06.149Z,28.97
2019-01-24T21:49:36.689Z,29.17
2019-01-24T21:55:32.604Z,27.07
2019-01-24T21:58:23.349Z,28.87
2019-01-24T22:01:12.714Z,30.03
2019-01-24T22:03:42.992Z,27.97
2019-01-24T22:12:18.154Z,26.50
2019-01-24T22:14:48.526Z,27.60
2019-01-24T22:17:18.849Z,28.23
2019-01-24T22:19:49.930Z,28.07
2019-01-24T22:25:31.734Z,28.43
2019-01-24T22:28:02.208Z,27.77
2019-01-24T22:33:57.721Z,29.70
2019-01-24T22:39:36.826Z,28.30
2019-01-24T22:42:07.717Z,28.37
2019-01-24T22:47:52.550Z,29.17
2019-01-24T22:50:22.925Z,28.70
2019-01-24T22:55:35.297Z,31.50
2019-01-24T22:58:06.241Z,32.10
2019-01-24T23:04:22.023Z,29.60
2019-01-24T23:09:58.997Z,31.27
2019-01-24T23:12:29.317Z,34.37
2019-01-24T23:14:59.811Z,30.00
2019-01-24T23:17:37.729Z,31.27
2019-01-24T23:20:08.974Z,30.27
2019-01-24T23:22:39.172Z,30.33
2019-01-24T23:28:05.580Z,31.37
2019-01-24T23:30:36.937Z,34.13
2019-01-24T23:33:07.650Z,31.53
2019-01-24T23:36:09.307Z,31.60
2019-01-24T23:38:39.787Z,32.57
2019-01-24T23:41:10.152Z,30.17
2019-01-24T23:43:40.773Z,29.83
2019-01-24T23:49:55.783Z,29.70
2019-01-24T23:52:27.766Z,31.20
2019-01-24T23:54:58.101Z,28.87
2019-01-24T23:57:28.422Z,31.53
2019-01-24T23:59:58.719Z,31.23
